Центральная Азия

ЗЦ Центральной Азии - "Азия-Центр" включает в себя пять республик: Казахстан, Кыргызстан, Таджикистан, Туркменистан и Узбекистан.

Зональный Центр обслуживает все аэропорты Центральной Азии по принципу "Top-down"

ЗЦ включает в себя РПИ Актобе, Алматы, Астаны, Ашхабада, Бишкека, Дашогуза, Душанбе, Оша, Самарканда, Ташкента, Туркменабата, Туркменбаши и Шымкента

В сети ВАТСИМ обслуживание воздушного движения над территорией ЗЦ Центральной Азии осуществляет позиция RU-CEN_FSS, позывной "Азия-Центр", частота 132.850.

Лого Центральная Азия
Руководство

Evgeny Vygornitsky

Куратор
FSS региона
Обозначение
RU-CEN_FSS
Позывной
Азия-Центр
Частота
132.850
Примечание
Top-down
Инструкторы региона
Aleksandr Sokolov (Instructor)
Dmitriy Bannov (Instructor)
Evgeny Vygornitsky (Supervisor)
Sergey Balandin (Senior Instructor)
Включает в себя

РПИ Актобе
РПИ Алматы
РПИ Астана
РПИ Ашхабад
РПИ Бишкек
РПИ Дашогуз
РПИ Душанбе
РПИ Ош
РПИ Самарканд
РПИ Ташкент
РПИ Туркменабат
РПИ Туркменбаши
РПИ Шымкент

Диспетчеры региона

Диспетчер Рейтинг Допуски *
Aleksandr Sokolov Instructor UAAA_CTR , UACN_CTR
Anatoly Bajenov Senior Student UTTR_CTR  *
Anatoly Zhilkin Controller UACN_CTR
Dmitriy Bannov Instructor UAAA_CTR , UACN_CTR
Evgeniy Dedyaev Senior Student UTTR_CTR  *
Vitaliy Alekseyev Controller UTSD_CTR , UTTR_CTR
Alikhan Aidarbek Student UAAA_TWR, UACC_TWR
Alikhan Omarov Student UACC_GND
Arman Maxatov Student 2 UTTT_TWR
Artem Kuzmenko Student 2 UAAA_TWR, UACC_TWR
begench atayev Unknown UTAA_GND
Damir Minyafov Student UACC_GND
Ilya Potapov Student UAAA_GND, UACC_TWR*, UACC_GND
Kirill Ardatov Senior Student UACC_APP
Maxim Nazyrov Student 2 UAAA_TWR, UACC_TWR, UACC_APP*
Mikhail Duzenko Student UACC_GND, UACC_TWR*
Nikita Zikeev Senior Student UACC_APP, UTTT_APP
Timofey Abramchuck Senior Student UTTT_GND
Viktor Ivanov Instructor UACC_APP

Аэропорты региона

ICAO Город Название Погода
UAAA Алматы Алматы UAAA 190630Z 34002MPS 280V090 9999 SCT050CB BKN100 29/14 Q1012 NOSIG
UACC Астана Астана UACC 190630Z 07004MPS 010V110 CAVOK 21/08 Q1019 NOSIG RMK QFE733/0978
UCFM Бишкек Манас UCFM 190630Z 35003MPS 280V050 9999 SCT066TCU 31/12 Q1011 NOSIG
UAKK Караганда Караганда UAKK 190630Z 05004MPS 010V090 CAVOK 20/07 Q1019 NOSIG RMK QFE717/0956
UTTT Ташкент Ташкент UTTT 190630Z 31008KT 280V360 CAVOK 34/10 Q1008 R08R/CLRD70 NOSIG
UATT Актобе Актобе UATT 190630Z 25002MPS 9999 SCT041CB 29/13 Q1013 NOSIG RMK QFE739/0986
UATG Атырау Атырау UATG 190630Z 04008MPS 9999 SCT033CB 35/13 Q1011 NOSIG RMK QFE760/1014
UTAA Ашхабад Ашхабад UTAA 190600Z 29018KT 9999 BKN100 36/11 Q1010 R88/70D NOSIG
UTSB Бухара Бухара UTSB 190630Z 36016KT 9999 FEW033 37/12 Q1007 R01/CLRD70 NOSIG
UTAT Дашогуз Дашогуз UTAT 190600Z 06008KT 020V080 CAVOK 37/13 Q1010 R08/CLRD70 NOSIG
UTDD Душанбе Душанбе UTDD 190630Z VRB02MPS 9999 FEW066 SCT120 32/13 Q1008 R09/D NOSIG RMK QFE688/0918
UAKD Жезказган Жезказган UAKD 190630Z 07009MPS CAVOK 26/M01 Q1016 NOSIG RMK QFE728/0971
UACK Кокшетау Кокшетау UACK 190630Z 20002MPS 140V260 CAVOK 22/11 Q1019 NOSIG RMK QFE740/0987
UAUU Костанай Костанай UAUU 190630Z 18008MPS 9999 SCT052CB 25/10 Q1016 NOSIG RMK QFE745/0994
UTAM Мары Мары UTAM 190600Z 02010KT CAVOK 39/13 Q1006 R88/CLRD70 NOSIG
UCFO Ош Ош UCFO 190630Z VRB01MPS 9999 FEW050CB 30/12 Q1011 NOSIG
UASP Павлодар Павлодар UASP 190630Z 31006MPS 280V340 CAVOK 21/05 Q1018 NOSIG RMK QFE753/1004
UACP Петропавловск Петропавловск UACP 190630Z 22006MPS CAVOK 23/11 Q1017 NOSIG RMK QFE750/1000
UTSS Самарканд Самарканд UTSS 190630Z 05014KT 010V090 9999 NSC 33/10 Q1008 R09/CLRD70 NOSIG
UTST Термез Термез UTST 190630Z 20004KT 140V240 CAVOK 34/10 Q1004 R25/CLRD70 NOSIG
UTAV Туркменабад Туркменабат UTAV 190600Z 36016G26KT CAVOK 38/10 Q1007 R31/CLRD70 NOSIG
UTAK Туркменбаши Туркменбаши UTAK 190600Z 34014KT CAVOK 34/16 Q1013 R34L/CLRD70 NOSIG
UARR Уральск Уральск UARR 190630Z 26004MPS 230V300 CAVOK 31/18 Q1010 NOSIG RMK QFE754/1005
UTNU Ургенч Ургенч UTNU 190630Z 35008KT CAVOK 37/13 Q1010 R31/CLRD70 NOSIG
UTDL Худжанд Худжанд UTDL 190630Z 08008G14MPS 9999 FEW066CB 32/12 Q1008 R08/CLRD70 NOSIG RMK QFE717/0957
UAII Шымкент Шымкент UAII 190630Z 04004MPS 360V080 CAVOK 35/11 Q1008 NOSIG RMK QFE721/0961
UTFA Андижан Андижан
UCFL Иссык-Куль Иссык-Куль UCFL 190630Z 13004MPS 9999 SCT030CB 21/08 Q1018
UCFP Каракол Каракол
UTSK Карши Карши-Ханабад UTSK 190630Z 02014KT CAVOK 36/10 Q1005 R34/CLRD70
UTSA Навои Навои UTSA 190630Z 02014KT 9999 NSC 37/08 Q1007 R07/CLRD70 NOSIG
UTFN Наманган Наманган UTFN 190630Z 11004KT 9999 FEW050CB 33/13 Q1008 R28/CLRD70 NOSIG
UTNN Нукус Нукус UTNN 190630Z 36012KT CAVOK 37/11 Q1011 R33/CLRD60 NOSIG
UTFF Фергана Фергана UTFF 190630Z 32006KT 280V350 9999 NSC 31/10 Q1009 R18/CLRD70